createdAt,value
2023-04-09T00:00:52.723Z,101431.38
2023-04-09T00:03:22.772Z,101431.38
2023-04-09T00:05:50.895Z,101425.97
2023-04-09T00:08:18.761Z,101427.94
2023-04-09T00:10:46.607Z,101427.41
2023-04-09T00:13:17.008Z,101428.53
2023-04-09T00:15:48.240Z,101434.81
2023-04-09T00:18:16.666Z,101432.84
2023-04-09T00:20:44.521Z,101437.41
2023-04-09T00:23:13.038Z,101445.38
2023-04-09T00:25:40.946Z,101434.53
2023-04-09T00:28:09.028Z,101440.25
2023-04-09T00:30:36.927Z,101438.56
2023-04-09T00:33:04.863Z,101442.28
2023-04-09T00:35:32.741Z,101440.41
2023-04-09T00:38:00.823Z,101437.69
2023-04-09T00:40:28.721Z,101433.25
2023-04-09T00:42:57.235Z,101438.69
2023-04-09T00:45:25.311Z,101440.41
2023-04-09T00:47:53.221Z,101444.41
2023-04-09T00:50:21.185Z,101443.44
2023-04-09T00:52:49.225Z,101430.53
2023-04-09T00:55:17.051Z,101439.56
2023-04-09T00:57:44.910Z,101444.13
2023-04-09T01:00:13.237Z,101448.56
2023-04-09T01:02:44.375Z,101443.84
2023-04-09T01:05:12.571Z,101442.97
2023-04-09T01:07:40.896Z,101446.69
2023-04-09T01:10:10.749Z,101449.97
2023-04-09T01:12:38.769Z,101447.72
2023-04-09T01:15:06.556Z,101451.56
2023-04-09T01:17:34.389Z,101447.13
2023-04-09T01:20:02.212Z,101448.25
2023-04-09T01:22:30.083Z,101450.84
2023-04-09T01:24:57.906Z,101453.41
2023-04-09T01:27:25.667Z,101451.56
2023-04-09T01:29:53.548Z,101449.84
2023-04-09T01:32:21.376Z,101442.28
2023-04-09T01:34:49.214Z,101441.56
2023-04-09T01:37:17.225Z,101441.69
2023-04-09T01:39:45.132Z,101441.56
2023-04-09T01:42:12.934Z,101445.41
2023-04-09T01:44:41.058Z,101435.72
2023-04-09T01:47:09.066Z,101443.84
2023-04-09T01:49:40.125Z,101431.28
2023-04-09T01:52:07.969Z,101436.00
2023-04-09T01:54:35.981Z,101435.16
2023-04-09T01:57:03.812Z,101434.56
2023-04-09T01:59:32.007Z,101428.16
2023-04-09T02:01:59.869Z,101432.56
2023-04-09T02:04:27.865Z,101435.41
2023-04-09T02:06:56.136Z,101442.00
2023-04-09T02:09:23.879Z,101436.28
2023-04-09T02:11:51.736Z,101434.72
2023-04-09T02:14:19.554Z,101440.28
2023-04-09T02:16:47.369Z,101444.84
2023-04-09T02:19:15.933Z,101444.28
2023-04-09T02:21:44.369Z,101442.56
2023-04-09T02:24:12.210Z,101439.72
2023-04-09T02:26:40.117Z,101439.41
2023-04-09T02:29:07.860Z,101440.56
2023-04-09T02:31:35.886Z,101443.16
2023-04-09T02:34:03.711Z,101443.16
2023-04-09T02:36:31.612Z,101444.28
2023-04-09T02:38:59.495Z,101442.44
2023-04-09T02:41:27.386Z,101444.00
2023-04-09T02:43:55.179Z,101446.00
2023-04-09T02:46:23.038Z,101455.16
2023-04-09T02:48:50.982Z,101460.28
2023-04-09T02:51:19.172Z,101450.28
2023-04-09T02:53:46.945Z,101453.72
2023-04-09T02:56:14.732Z,101455.84
2023-04-09T02:58:42.869Z,101451.41
2023-04-09T03:01:11.129Z,101453.41
2023-04-09T03:03:42.263Z,101452.44
2023-04-09T03:06:10.191Z,101450.28
2023-04-09T03:08:37.975Z,101453.28
2023-04-09T03:11:05.875Z,101456.00
2023-04-09T03:13:33.732Z,101450.56
2023-04-09T03:16:01.561Z,101450.16
2023-04-09T03:18:31.555Z,101450.56
2023-04-09T03:20:59.422Z,101447.97
2023-04-09T03:23:27.369Z,101453.13
2023-04-09T03:25:55.193Z,101447.97
2023-04-09T03:28:23.046Z,101447.84
2023-04-09T03:30:51.096Z,101451.72
2023-04-09T03:33:19.704Z,101456.22
2023-04-09T03:35:47.543Z,101448.50
2023-04-09T03:38:15.430Z,101445.94
2023-04-09T03:40:43.323Z,101444.78
2023-04-09T03:43:11.130Z,101440.38
2023-04-09T03:45:38.925Z,101443.41
2023-04-09T03:48:06.763Z,101444.25
2023-04-09T03:50:34.579Z,101435.84
2023-04-09T03:53:02.381Z,101442.97
2023-04-09T03:55:30.240Z,101445.94
2023-04-09T03:57:58.116Z,101439.41
2023-04-09T04:00:26.088Z,101448.53
2023-04-09T04:02:54.203Z,101447.09
2023-04-09T04:05:23.337Z,101444.25
2023-04-09T04:07:51.198Z,101442.38
2023-04-09T04:10:19.289Z,101448.53
2023-04-09T04:12:47.155Z,101444.25
2023-04-09T04:15:14.989Z,101451.78
2023-04-09T04:17:42.833Z,101438.50
2023-04-09T04:20:10.748Z,101443.66
2023-04-09T04:22:38.707Z,101450.09
2023-04-09T04:25:06.501Z,101458.22
2023-04-09T04:27:34.298Z,101451.66
2023-04-09T04:30:02.262Z,101450.81
2023-04-09T04:32:30.107Z,101460.06
2023-04-09T04:34:57.916Z,101456.22
2023-04-09T04:37:25.921Z,101462.69
2023-04-09T04:39:53.731Z,101464.13
2023-04-09T04:42:21.628Z,101459.38
2023-04-09T04:44:49.405Z,101458.66
2023-04-09T04:47:17.219Z,101459.09
2023-04-09T04:49:45.005Z,101466.09
2023-04-09T04:52:12.814Z,101463.09
2023-04-09T04:54:40.699Z,101461.66
2023-04-09T04:57:08.534Z,101474.78
2023-04-09T04:59:36.273Z,101464.81
2023-04-09T05:02:04.548Z,101472.94
2023-04-09T05:04:32.457Z,101473.38
2023-04-09T05:07:00.225Z,101467.38
2023-04-09T05:09:28.262Z,101470.78
2023-04-09T05:11:57.060Z,101467.50
2023-04-09T05:14:25.338Z,101469.09
2023-04-09T05:16:53.392Z,101475.13
2023-04-09T05:19:21.269Z,101461.78
2023-04-09T05:21:49.077Z,101471.50
2023-04-09T05:24:17.154Z,101466.91
2023-04-09T05:26:45.074Z,101470.47
2023-04-09T05:29:12.813Z,101474.16
2023-04-09T05:31:43.175Z,101467.16
2023-04-09T05:34:11.278Z,101472.50
2023-04-09T05:36:39.033Z,101474.91
2023-04-09T05:39:06.829Z,101478.47
2023-04-09T05:41:37.285Z,101473.22
2023-04-09T05:44:05.155Z,101479.28
2023-04-09T05:46:33.041Z,101484.34
2023-04-09T05:49:00.845Z,101487.88
2023-04-09T05:51:28.769Z,101502.81
2023-04-09T05:53:56.566Z,101486.41
2023-04-09T05:56:24.577Z,101495.19
2023-04-09T05:58:52.391Z,101498.22
2023-04-09T06:01:20.177Z,101491.53
2023-04-09T06:03:48.126Z,101506.34
2023-04-09T06:06:16.170Z,101501.03
2023-04-09T06:08:45.016Z,101498.16
2023-04-09T06:11:12.806Z,101498.16
2023-04-09T06:13:40.578Z,101497.31
2023-04-09T06:16:08.662Z,101487.41
2023-04-09T06:18:36.475Z,101493.03
2023-04-09T06:21:04.440Z,101490.63
2023-04-09T06:23:32.513Z,101482.06
2023-04-09T06:26:00.417Z,101490.56
2023-04-09T06:28:28.403Z,101489.16
2023-04-09T06:30:56.290Z,101490.47
2023-04-09T06:33:24.114Z,101484.34
2023-04-09T06:35:51.947Z,101486.34
2023-04-09T06:38:19.764Z,101489.91
2023-04-09T06:40:47.824Z,101492.72
2023-04-09T06:43:15.650Z,101490.00
2023-04-09T06:45:43.470Z,101492.25
2023-04-09T06:48:11.273Z,101484.22
2023-04-09T06:50:39.208Z,101497.47
2023-04-09T06:53:06.973Z,101498.63
2023-04-09T06:55:34.842Z,101510.28
2023-04-09T06:58:03.429Z,101509.75
2023-04-09T07:00:31.376Z,101514.50
2023-04-09T07:02:59.199Z,101510.28
2023-04-09T07:05:27.275Z,101518.22
2023-04-09T07:07:55.058Z,101516.50
2023-04-09T07:10:22.859Z,101525.69
2023-04-09T07:12:50.673Z,101532.56
2023-04-09T07:15:18.633Z,101524.94
2023-04-09T07:17:46.504Z,101531.94
2023-04-09T07:20:14.694Z,101535.50
2023-04-09T07:22:42.802Z,101534.25
2023-04-09T07:25:10.935Z,101543.84
2023-04-09T07:27:38.696Z,101540.63
2023-04-09T07:30:06.483Z,101529.69
2023-04-09T07:32:34.429Z,101534.13
2023-04-09T07:35:02.505Z,101531.69
2023-04-09T07:37:30.633Z,101527.91
2023-04-09T07:39:58.430Z,101532.00
2023-04-09T07:42:27.350Z,101528.13
2023-04-09T07:44:55.268Z,101532.56
2023-04-09T07:47:23.271Z,101532.41
2023-04-09T07:49:51.637Z,101542.31
2023-04-09T07:52:20.216Z,101528.97
2023-04-09T07:54:48.038Z,101527.72
2023-04-09T07:57:15.932Z,101528.88
2023-04-09T07:59:43.705Z,101526.34
2023-04-09T08:02:14.357Z,101526.81
2023-04-09T08:04:43.062Z,101532.09
2023-04-09T08:07:11.545Z,101532.41
2023-04-09T08:09:39.433Z,101528.97
2023-04-09T08:12:07.213Z,101529.28
2023-04-09T08:14:35.059Z,101528.56
2023-04-09T08:17:03.377Z,101527.91
2023-04-09T08:19:31.361Z,101530.22
2023-04-09T08:21:59.217Z,101525.94
2023-04-09T08:24:27.049Z,101534.41
2023-04-09T08:26:54.875Z,101535.56
2023-04-09T08:29:22.648Z,101532.84
2023-04-09T08:31:50.744Z,101532.47
2023-04-09T08:34:21.162Z,101529.03
2023-04-09T08:36:49.919Z,101536.50
2023-04-09T08:39:18.981Z,101529.34
2023-04-09T08:41:47.627Z,101540.22
2023-04-09T08:44:15.594Z,101539.34
2023-04-09T08:46:43.417Z,101525.06
2023-04-09T08:49:11.523Z,101533.69
2023-04-09T08:51:40.405Z,101535.69
2023-04-09T08:54:08.353Z,101526.50
2023-04-09T08:56:36.431Z,101531.94
2023-04-09T08:59:04.360Z,101525.34
2023-04-09T09:01:32.560Z,101527.91
2023-04-09T09:04:00.736Z,101519.91
2023-04-09T09:06:30.134Z,101519.91
2023-04-09T09:08:57.961Z,101521.63
2023-04-09T09:11:26.045Z,101509.59
2023-04-09T09:13:53.830Z,101510.44
2023-04-09T09:16:21.755Z,101509.28
2023-04-09T09:18:49.960Z,101500.09
2023-04-09T09:21:19.494Z,101490.34
2023-04-09T09:23:48.517Z,101494.09
2023-04-09T09:26:16.577Z,101491.38
2023-04-09T09:28:44.413Z,101487.81
2023-04-09T09:31:12.625Z,101488.66
2023-04-09T09:33:40.630Z,101487.81
2023-04-09T09:36:09.596Z,101493.25
2023-04-09T09:38:37.429Z,101494.94
2023-04-09T09:41:05.461Z,101494.94
2023-04-09T09:43:33.222Z,101486.78
2023-04-09T09:46:01.052Z,101492.09
2023-04-09T09:48:28.873Z,101491.25
2023-04-09T09:50:56.891Z,101493.25
2023-04-09T09:53:25.219Z,101490.66
2023-04-09T09:55:53.122Z,101493.69
2023-04-09T09:58:20.912Z,101487.56
2023-04-09T10:00:49.006Z,101485.84
2023-04-09T10:03:17.165Z,101490.41
2023-04-09T10:05:45.974Z,101489.28
2023-04-09T10:08:13.882Z,101482.69
2023-04-09T10:10:42.425Z,101480.63
2023-04-09T10:13:10.270Z,101481.78
2023-04-09T10:15:38.439Z,101478.94
2023-04-09T10:18:06.413Z,101471.78
2023-04-09T10:20:34.773Z,101470.06
2023-04-09T10:23:02.534Z,101465.91
2023-04-09T10:25:30.371Z,101471.22
2023-04-09T10:27:58.156Z,101463.19
2023-04-09T10:30:25.969Z,101466.91
2023-04-09T10:32:54.172Z,101471.38
2023-04-09T10:35:22.044Z,101473.38
2023-04-09T10:37:50.688Z,101467.66
2023-04-09T10:40:18.618Z,101462.91
2023-04-09T10:42:47.880Z,101474.19
2023-04-09T10:45:16.926Z,101469.75
2023-04-09T10:47:46.340Z,101462.59
2023-04-09T10:50:14.542Z,101463.63
2023-04-09T10:52:42.573Z,101457.47
2023-04-09T10:55:10.369Z,101459.19
2023-04-09T10:57:38.131Z,101454.75
2023-04-09T11:00:05.946Z,101449.31
2023-04-09T11:02:33.905Z,101453.03
2023-04-09T11:05:02.058Z,101446.88
2023-04-09T11:07:30.232Z,101442.84
2023-04-09T11:09:58.054Z,101443.69
2023-04-09T11:12:26.087Z,101440.13
2023-04-09T11:14:53.992Z,101436.00
2023-04-09T11:17:21.901Z,101430.69
2023-04-09T11:19:49.862Z,101430.81
2023-04-09T11:22:17.807Z,101432.69
2023-04-09T11:24:46.619Z,101433.53
2023-04-09T11:27:19.600Z,101435.09
2023-04-09T11:29:47.464Z,101431.72
2023-04-09T11:32:15.723Z,101424.53
2023-04-09T11:34:43.577Z,101427.56
2023-04-09T11:37:12.248Z,101434.03
2023-04-09T11:39:42.979Z,101432.88
2023-04-09T11:42:10.909Z,101437.44
2023-04-09T11:44:38.772Z,101429.97
2023-04-09T11:47:07.489Z,101418.66
2023-04-09T11:49:35.349Z,101422.94
2023-04-09T11:52:04.138Z,101421.78
2023-04-09T11:54:31.908Z,101423.47
2023-04-09T11:56:59.707Z,101425.03
2023-04-09T11:59:27.512Z,101426.06
2023-04-09T12:01:55.510Z,101422.16
2023-04-09T12:04:23.569Z,101429.31
2023-04-09T12:06:52.002Z,101422.03
2023-04-09T12:09:19.796Z,101422.88
2023-04-09T12:11:47.581Z,101426.44
2023-04-09T12:14:16.276Z,101427.31
2023-04-09T12:16:44.886Z,101423.88
2023-04-09T12:19:12.806Z,101426.78
2023-04-09T12:21:40.601Z,101415.78
2023-04-09T12:24:08.369Z,101425.09
2023-04-09T12:26:36.178Z,101418.69
2023-04-09T12:29:03.992Z,101421.66
2023-04-09T12:31:31.803Z,101417.91
2023-04-09T12:33:59.647Z,101419.19
2023-04-09T12:36:27.668Z,101424.53
2023-04-09T12:38:55.833Z,101415.88
2023-04-09T12:41:23.635Z,101411.09
2023-04-09T12:43:51.658Z,101416.78
2023-04-09T12:46:19.612Z,101404.16
2023-04-09T12:48:47.493Z,101409.63
2023-04-09T12:51:15.332Z,101397.66
2023-04-09T12:53:44.661Z,101395.63
2023-04-09T12:56:12.471Z,101397.50
2023-04-09T12:58:40.463Z,101396.66
2023-04-09T13:01:08.295Z,101392.41
2023-04-09T13:03:36.672Z,101400.84
2023-04-09T13:06:04.605Z,101396.44
2023-04-09T13:08:32.404Z,101398.66
2023-04-09T13:11:00.838Z,101397.78
2023-04-09T13:13:28.709Z,101387.03
2023-04-09T13:15:58.980Z,101391.81
2023-04-09T13:18:26.753Z,101384.97
2023-04-09T13:20:54.557Z,101381.03
2023-04-09T13:23:22.345Z,101383.41
2023-04-09T13:25:50.129Z,101374.69
2023-04-09T13:28:17.995Z,101366.16
2023-04-09T13:30:45.778Z,101367.50
2023-04-09T13:33:13.573Z,101363.41
2023-04-09T13:35:41.518Z,101371.22
2023-04-09T13:38:12.598Z,101365.06
2023-04-09T13:40:40.730Z,101367.28
2023-04-09T13:43:08.493Z,101365.19
2023-04-09T13:45:39.461Z,101364.34
2023-04-09T13:48:07.385Z,101360.06
2023-04-09T13:50:35.353Z,101357.84
2023-04-09T13:53:05.340Z,101357.31
2023-04-09T13:55:33.209Z,101357.78
2023-04-09T13:58:00.995Z,101356.09
2023-04-09T14:00:29.079Z,101341.41
2023-04-09T14:02:57.023Z,101347.94
2023-04-09T14:05:25.303Z,101336.44
2023-04-09T14:07:53.098Z,101339.34
2023-04-09T14:10:20.881Z,101339.31
2023-04-09T14:12:48.807Z,101338.13
2023-04-09T14:15:16.890Z,101338.94
2023-04-09T14:17:44.707Z,101342.50
2023-04-09T14:20:12.650Z,101336.53
2023-04-09T14:22:41.512Z,101333.09
2023-04-09T14:25:09.324Z,101338.69
2023-04-09T14:27:40.116Z,101334.31
2023-04-09T14:30:07.905Z,101339.28
2023-04-09T14:32:36.387Z,101332.34
2023-04-09T14:35:04.278Z,101327.97
2023-04-09T14:37:32.297Z,101327.00
2023-04-09T14:40:00.068Z,101332.25
2023-04-09T14:42:28.106Z,101323.38
2023-04-09T14:44:56.124Z,101330.38
2023-04-09T14:47:23.997Z,101326.81
2023-04-09T14:49:55.041Z,101321.88
2023-04-09T14:52:22.966Z,101320.84
2023-04-09T14:54:52.966Z,101314.72
2023-04-09T14:57:20.853Z,101316.75
2023-04-09T14:59:48.684Z,101316.09
2023-04-09T15:02:16.686Z,101309.25
2023-04-09T15:04:44.718Z,101312.81
2023-04-09T15:07:13.011Z,101300.69
2023-04-09T15:09:40.866Z,101300.00
2023-04-09T15:12:09.638Z,101300.34
2023-04-09T15:14:37.435Z,101300.69
2023-04-09T15:17:05.422Z,101295.91
2023-04-09T15:19:33.445Z,101292.50
2023-04-09T15:22:01.254Z,101302.00
2023-04-09T15:24:29.024Z,101295.00
2023-04-09T15:26:57.011Z,101290.59
2023-04-09T15:29:24.789Z,101291.59
2023-04-09T15:31:52.967Z,101296.69
2023-04-09T15:34:20.948Z,101289.53
2023-04-09T15:36:48.952Z,101302.38
2023-04-09T15:39:17.138Z,101307.50
2023-04-09T15:41:45.019Z,101307.31
2023-04-09T15:44:12.824Z,101304.25
2023-04-09T15:46:40.902Z,101301.00
2023-04-09T15:49:11.722Z,101307.47
2023-04-09T15:51:39.549Z,101304.91
2023-04-09T15:54:07.360Z,101307.47
2023-04-09T15:56:39.917Z,101305.56
2023-04-09T15:59:08.351Z,101300.78
2023-04-09T16:01:36.716Z,101304.56
2023-04-09T16:04:09.506Z,101301.09
2023-04-09T16:06:37.346Z,101310.81
2023-04-09T16:09:05.288Z,101308.44
2023-04-09T16:11:37.601Z,101313.88
2023-04-09T16:14:05.482Z,101309.44
2023-04-09T16:16:33.274Z,101306.91
2023-04-09T16:19:01.135Z,101314.03
2023-04-09T16:21:29.213Z,101314.84
2023-04-09T16:23:57.534Z,101308.91
2023-04-09T16:26:28.596Z,101312.97
2023-04-09T16:28:59.928Z,101308.06
2023-04-09T16:31:30.381Z,101306.09
2023-04-09T16:33:58.738Z,101315.53
2023-04-09T16:36:27.127Z,101316.94
2023-04-09T16:38:55.201Z,101310.69
2023-04-09T16:41:23.004Z,101313.41
2023-04-09T16:43:51.493Z,101310.69
2023-04-09T16:46:19.400Z,101311.72
2023-04-09T16:48:47.561Z,101313.06
2023-04-09T16:51:15.584Z,101305.41
2023-04-09T16:53:43.525Z,101308.31
2023-04-09T16:56:11.527Z,101302.84
2023-04-09T16:58:39.497Z,101296.19
2023-04-09T17:01:07.619Z,101301.66
2023-04-09T17:03:35.744Z,101303.19
2023-04-09T17:06:05.183Z,101305.22
2023-04-09T17:08:33.161Z,101301.97
2023-04-09T17:11:03.213Z,101305.88
2023-04-09T17:13:31.716Z,101306.19
2023-04-09T17:15:59.651Z,101310.44
2023-04-09T17:18:27.884Z,101308.91
2023-04-09T17:20:56.288Z,101310.09
2023-04-09T17:23:26.427Z,101309.75
2023-04-09T17:28:25.185Z,101308.88
2023-04-09T17:30:53.265Z,101311.09
2023-04-09T17:33:24.118Z,101303.22
2023-04-09T17:35:53.099Z,101307.16
2023-04-09T17:38:21.721Z,101303.06
2023-04-09T17:40:49.760Z,101317.72
2023-04-09T17:43:17.873Z,101319.75
2023-04-09T17:45:46.274Z,101319.53
2023-04-09T17:48:18.509Z,101315.59
2023-04-09T17:50:46.854Z,101312.84
2023-04-09T17:53:14.926Z,101311.38
2023-04-09T17:55:42.914Z,101309.91
2023-04-09T17:58:10.966Z,101312.44
2023-04-09T18:00:39.025Z,101319.41
2023-04-09T18:03:07.198Z,101316.81
2023-04-09T18:05:35.375Z,101311.69
2023-04-09T18:08:03.363Z,101309.09
2023-04-09T18:10:32.816Z,101315.91
2023-04-09T18:13:00.813Z,101310.09
2023-04-09T18:15:28.706Z,101313.81
2023-04-09T18:17:56.570Z,101315.56
2023-04-09T18:20:24.665Z,101319.47
2023-04-09T18:22:54.831Z,101316.72
2023-04-09T18:25:23.569Z,101323.88
2023-04-09T18:27:51.456Z,101322.53
2023-04-09T18:30:19.309Z,101323.31
2023-04-09T18:32:48.356Z,101324.91
2023-04-09T18:35:17.464Z,101331.44
2023-04-09T18:37:45.420Z,101330.81
2023-04-09T18:40:15.692Z,101331.88
2023-04-09T18:42:43.580Z,101333.22
2023-04-09T18:45:11.858Z,101340.41
2023-04-09T18:47:40.479Z,101340.72
2023-04-09T18:50:08.787Z,101348.25
2023-04-09T18:52:38.595Z,101340.38
2023-04-09T18:55:06.682Z,101341.06
2023-04-09T18:57:34.660Z,101339.03
2023-04-09T19:00:03.943Z,101342.78
2023-04-09T19:02:32.190Z,101344.81
2023-04-09T19:05:00.292Z,101348.06
2023-04-09T19:07:28.265Z,101352.16
2023-04-09T19:09:56.507Z,101349.22
2023-04-09T19:12:25.054Z,101344.28
2023-04-09T19:14:53.768Z,101350.88
2023-04-09T19:17:21.707Z,101344.94
2023-04-09T19:19:51.705Z,101347.13
2023-04-09T19:22:19.733Z,101345.56
2023-04-09T19:24:47.650Z,101345.41
2023-04-09T19:27:15.572Z,101347.63
2023-04-09T19:29:44.160Z,101347.28
2023-04-09T19:32:14.989Z,101347.75
2023-04-09T19:34:42.790Z,101348.94
2023-04-09T19:37:12.545Z,101346.84
2023-04-09T19:39:41.691Z,101346.69
2023-04-09T19:42:09.590Z,101351.44
2023-04-09T19:44:37.721Z,101339.31
2023-04-09T19:47:07.768Z,101343.72
2023-04-09T19:49:35.720Z,101338.94
2023-04-09T19:52:09.222Z,101351.41
2023-04-09T19:54:39.748Z,101342.41
2023-04-09T19:57:15.264Z,101347.00
2023-04-09T19:59:43.056Z,101352.19
2023-04-09T20:02:10.913Z,101351.69
2023-04-09T20:04:40.474Z,101355.41
2023-04-09T20:07:08.266Z,101359.50
2023-04-09T20:09:41.434Z,101357.69
2023-04-09T20:12:09.242Z,101358.50
2023-04-09T20:14:38.299Z,101356.94
2023-04-09T20:17:06.172Z,101360.31
2023-04-09T20:19:34.130Z,101357.75
2023-04-09T20:22:02.050Z,101366.56
2023-04-09T20:24:32.332Z,101368.44
2023-04-09T20:27:00.112Z,101375.75
2023-04-09T20:29:27.955Z,101379.34
2023-04-09T20:31:55.818Z,101376.91
2023-04-09T20:34:27.070Z,101380.28
2023-04-09T20:36:55.536Z,101372.44
2023-04-09T20:39:26.924Z,101375.31
2023-04-09T20:41:55.160Z,101367.47
2023-04-09T20:44:22.990Z,101369.66
2023-04-09T20:46:50.906Z,101372.69
2023-04-09T20:49:18.701Z,101365.00
2023-04-09T20:51:46.528Z,101361.72
2023-04-09T20:54:14.326Z,101363.59
2023-04-09T20:56:42.182Z,101363.91
2023-04-09T20:59:10.001Z,101365.06
2023-04-09T21:01:37.994Z,101363.38
2023-04-09T21:04:08.613Z,101356.78
2023-04-09T21:06:36.605Z,101360.97
2023-04-09T21:09:04.528Z,101362.28
2023-04-09T21:11:32.452Z,101360.59
2023-04-09T21:14:03.050Z,101354.59
2023-04-09T21:16:31.227Z,101351.72
2023-04-09T21:19:07.162Z,101351.16
2023-04-09T21:21:35.095Z,101346.88
2023-04-09T21:24:03.109Z,101355.50
2023-04-09T21:26:38.670Z,101343.91
2023-04-09T21:29:17.612Z,101343.91
2023-04-09T21:31:45.702Z,101341.19
2023-04-09T21:34:13.538Z,101342.91
2023-04-09T21:36:41.393Z,101338.63
2023-04-09T21:39:09.283Z,101349.81
2023-04-09T21:41:37.052Z,101344.25
2023-04-09T21:44:08.574Z,101337.94
2023-04-09T21:46:37.146Z,101345.94
2023-04-09T21:49:05.094Z,101341.34
2023-04-09T21:51:33.170Z,101345.41
2023-04-09T21:54:01.035Z,101340.44
2023-04-09T21:56:28.817Z,101347.88
2023-04-09T21:58:56.902Z,101351.44
2023-04-09T22:01:29.474Z,101354.50
2023-04-09T22:03:57.553Z,101351.06
2023-04-09T22:06:27.076Z,101351.38
2023-04-09T22:08:56.866Z,101355.13
2023-04-09T22:11:25.052Z,101352.22
2023-04-09T22:13:53.214Z,101344.25
2023-04-09T22:16:21.014Z,101348.66
2023-04-09T22:18:49.076Z,101343.84
2023-04-09T22:21:16.879Z,101343.84
2023-04-09T22:23:44.725Z,101344.84
2023-04-09T22:26:12.645Z,101352.00
2023-04-09T22:28:40.438Z,101342.69
2023-04-09T22:31:08.256Z,101343.66
2023-04-09T22:33:36.142Z,101346.56
2023-04-09T22:36:03.943Z,101350.59
2023-04-09T22:38:31.862Z,101358.06
2023-04-09T22:40:59.788Z,101358.75
2023-04-09T22:43:27.584Z,101354.66
2023-04-09T22:45:56.028Z,101359.22
2023-04-09T22:48:24.119Z,101352.78
2023-04-09T22:50:54.294Z,101353.94
2023-04-09T22:53:24.791Z,101354.06
2023-04-09T22:55:52.603Z,101355.25
2023-04-09T22:58:20.546Z,101364.28
2023-04-09T23:00:48.348Z,101367.00
2023-04-09T23:03:16.913Z,101367.13
2023-04-09T23:05:44.799Z,101364.09
2023-04-09T23:08:12.640Z,101359.81
2023-04-09T23:10:40.485Z,101357.28
2023-04-09T23:13:10.252Z,101360.84
2023-04-09T23:15:38.071Z,101368.16
2023-04-09T23:18:05.887Z,101362.00
2023-04-09T23:20:33.765Z,101363.00
2023-04-09T23:23:01.683Z,101356.16
2023-04-09T23:25:29.462Z,101364.31
2023-04-09T23:27:57.354Z,101362.91
2023-04-09T23:30:25.173Z,101353.91
2023-04-09T23:32:55.607Z,101353.75
2023-04-09T23:35:25.427Z,101356.47
2023-04-09T23:37:53.341Z,101354.22
2023-04-09T23:40:21.491Z,101348.06
2023-04-09T23:42:50.285Z,101347.03
2023-04-09T23:45:18.106Z,101347.22
2023-04-09T23:47:46.180Z,101350.78
2023-04-09T23:50:14.113Z,101350.25
2023-04-09T23:52:41.975Z,101351.22
2023-04-09T23:55:10.791Z,101352.97
2023-04-09T23:57:39.788Z,101350.25
